sensor_id;sensor_type;location;lat;lon;timestamp;P1;durP1;ratioP1;P2;durP2;ratioP2
69386;SDS011;56575;48.942;8.404;2022-07-06T00:01:07;6.82;;;2.30;;
69386;SDS011;56575;48.942;8.404;2022-07-06T00:03:32;4.63;;;2.40;;
69386;SDS011;56575;48.942;8.404;2022-07-06T00:05:57;4.63;;;2.20;;
69386;SDS011;56575;48.942;8.404;2022-07-06T00:08:23;3.23;;;2.30;;
69386;SDS011;56575;48.942;8.404;2022-07-06T00:10:48;4.13;;;2.13;;
69386;SDS011;56575;48.942;8.404;2022-07-06T00:13:13;5.63;;;2.70;;
69386;SDS011;56575;48.942;8.404;2022-07-06T00:15:39;3.37;;;1.90;;
69386;SDS011;56575;48.942;8.404;2022-07-06T00:18:04;3.90;;;2.10;;
69386;SDS011;56575;48.942;8.404;2022-07-06T00:20:30;4.88;;;2.40;;
69386;SDS011;56575;48.942;8.404;2022-07-06T00:22:55;4.13;;;2.63;;
69386;SDS011;56575;48.942;8.404;2022-07-06T00:25:20;4.23;;;2.37;;
69386;SDS011;56575;48.942;8.404;2022-07-06T00:27:46;4.30;;;2.30;;
69386;SDS011;56575;48.942;8.404;2022-07-06T00:30:11;5.40;;;2.43;;
69386;SDS011;56575;48.942;8.404;2022-07-06T00:32:37;4.60;;;2.40;;
69386;SDS011;56575;48.942;8.404;2022-07-06T00:35:02;5.00;;;2.50;;
69386;SDS011;56575;48.942;8.404;2022-07-06T00:37:28;3.47;;;2.10;;
69386;SDS011;56575;48.942;8.404;2022-07-06T00:39:53;4.80;;;2.53;;
69386;SDS011;56575;48.942;8.404;2022-07-06T00:42:18;3.33;;;2.30;;
69386;SDS011;56575;48.942;8.404;2022-07-06T00:44:44;3.90;;;2.30;;
69386;SDS011;56575;48.942;8.404;2022-07-06T00:47:09;4.37;;;2.50;;
69386;SDS011;56575;48.942;8.404;2022-07-06T00:49:35;3.72;;;2.72;;
69386;SDS011;56575;48.942;8.404;2022-07-06T00:52:18;3.13;;;2.13;;
69386;SDS011;56575;48.942;8.404;2022-07-06T00:54:44;3.63;;;2.47;;
69386;SDS011;56575;48.942;8.404;2022-07-06T00:57:11;3.90;;;2.58;;
69386;SDS011;56575;48.942;8.404;2022-07-06T00:59:37;3.63;;;2.30;;
69386;SDS011;56575;48.942;8.404;2022-07-06T01:02:02;5.50;;;2.53;;
69386;SDS011;56575;48.942;8.404;2022-07-06T01:04:28;4.30;;;2.42;;
69386;SDS011;56575;48.942;8.404;2022-07-06T01:06:53;3.83;;;2.50;;
69386;SDS011;56575;48.942;8.404;2022-07-06T01:09:18;3.77;;;2.50;;
69386;SDS011;56575;48.942;8.404;2022-07-06T01:11:44;6.30;;;2.70;;
69386;SDS011;56575;48.942;8.404;2022-07-06T01:14:09;4.30;;;2.70;;
69386;SDS011;56575;48.942;8.404;2022-07-06T01:16:36;6.97;;;2.60;;
69386;SDS011;56575;48.942;8.404;2022-07-06T01:19:02;4.45;;;2.47;;
69386;SDS011;56575;48.942;8.404;2022-07-06T01:21:27;3.80;;;2.40;;
69386;SDS011;56575;48.942;8.404;2022-07-06T01:23:52;5.07;;;2.90;;
69386;SDS011;56575;48.942;8.404;2022-07-06T01:26:19;4.13;;;2.90;;
69386;SDS011;56575;48.942;8.404;2022-07-06T01:28:45;3.67;;;2.67;;
69386;SDS011;56575;48.942;8.404;2022-07-06T01:31:21;4.45;;;2.63;;
69386;SDS011;56575;48.942;8.404;2022-07-06T01:33:49;3.80;;;2.73;;
69386;SDS011;56575;48.942;8.404;2022-07-06T01:36:15;6.07;;;2.72;;
69386;SDS011;56575;48.942;8.404;2022-07-06T01:38:50;4.30;;;2.55;;
69386;SDS011;56575;48.942;8.404;2022-07-06T01:41:19;3.93;;;2.80;;
69386;SDS011;56575;48.942;8.404;2022-07-06T01:43:45;4.97;;;2.90;;
69386;SDS011;56575;48.942;8.404;2022-07-06T01:46:12;4.60;;;3.15;;
69386;SDS011;56575;48.942;8.404;2022-07-06T01:48:38;3.53;;;2.92;;
69386;SDS011;56575;48.942;8.404;2022-07-06T01:51:04;4.60;;;3.20;;
69386;SDS011;56575;48.942;8.404;2022-07-06T01:53:30;4.70;;;2.85;;
69386;SDS011;56575;48.942;8.404;2022-07-06T01:55:55;4.28;;;3.10;;
69386;SDS011;56575;48.942;8.404;2022-07-06T01:58:21;4.23;;;2.93;;
69386;SDS011;56575;48.942;8.404;2022-07-06T02:00:46;4.37;;;3.17;;
69386;SDS011;56575;48.942;8.404;2022-07-06T02:03:12;5.80;;;2.95;;
69386;SDS011;56575;48.942;8.404;2022-07-06T02:05:37;5.40;;;3.40;;
69386;SDS011;56575;48.942;8.404;2022-07-06T02:08:03;5.93;;;3.53;;
69386;SDS011;56575;48.942;8.404;2022-07-06T02:10:28;5.63;;;3.30;;
69386;SDS011;56575;48.942;8.404;2022-07-06T02:12:53;4.80;;;3.27;;
69386;SDS011;56575;48.942;8.404;2022-07-06T02:15:19;5.90;;;3.30;;
69386;SDS011;56575;48.942;8.404;2022-07-06T02:17:44;5.40;;;2.90;;
69386;SDS011;56575;48.942;8.404;2022-07-06T02:20:10;5.07;;;3.00;;
69386;SDS011;56575;48.942;8.404;2022-07-06T02:22:35;4.55;;;3.00;;
69386;SDS011;56575;48.942;8.404;2022-07-06T02:25:02;6.28;;;3.28;;
69386;SDS011;56575;48.942;8.404;2022-07-06T02:27:28;4.67;;;2.90;;
69386;SDS011;56575;48.942;8.404;2022-07-06T02:29:53;6.70;;;3.33;;
69386;SDS011;56575;48.942;8.404;2022-07-06T02:32:19;4.03;;;3.17;;
69386;SDS011;56575;48.942;8.404;2022-07-06T02:34:44;5.17;;;3.67;;
69386;SDS011;56575;48.942;8.404;2022-07-06T02:37:10;3.90;;;2.93;;
69386;SDS011;56575;48.942;8.404;2022-07-06T02:39:35;3.85;;;3.30;;
69386;SDS011;56575;48.942;8.404;2022-07-06T02:42:00;5.33;;;3.33;;
69386;SDS011;56575;48.942;8.404;2022-07-06T02:44:26;4.10;;;2.90;;
69386;SDS011;56575;48.942;8.404;2022-07-06T02:46:51;4.23;;;3.23;;
69386;SDS011;56575;48.942;8.404;2022-07-06T02:49:17;4.30;;;3.23;;
69386;SDS011;56575;48.942;8.404;2022-07-06T02:51:42;5.87;;;3.30;;
69386;SDS011;56575;48.942;8.404;2022-07-06T02:54:07;7.03;;;3.40;;
69386;SDS011;56575;48.942;8.404;2022-07-06T02:56:33;5.03;;;3.00;;
69386;SDS011;56575;48.942;8.404;2022-07-06T02:58:58;4.23;;;3.20;;
69386;SDS011;56575;48.942;8.404;2022-07-06T03:01:23;7.80;;;3.33;;
69386;SDS011;56575;48.942;8.404;2022-07-06T03:03:49;7.03;;;3.20;;
69386;SDS011;56575;48.942;8.404;2022-07-06T03:06:14;5.30;;;3.33;;
69386;SDS011;56575;48.942;8.404;2022-07-06T03:08:40;4.80;;;3.27;;
69386;SDS011;56575;48.942;8.404;2022-07-06T03:11:05;4.23;;;3.27;;
69386;SDS011;56575;48.942;8.404;2022-07-06T03:13:30;5.17;;;3.30;;
69386;SDS011;56575;48.942;8.404;2022-07-06T03:15:56;4.40;;;3.50;;
69386;SDS011;56575;48.942;8.404;2022-07-06T03:18:22;4.13;;;3.20;;
69386;SDS011;56575;48.942;8.404;2022-07-06T03:20:47;5.47;;;3.50;;
69386;SDS011;56575;48.942;8.404;2022-07-06T03:23:12;6.47;;;3.40;;
69386;SDS011;56575;48.942;8.404;2022-07-06T03:25:38;4.00;;;3.30;;
69386;SDS011;56575;48.942;8.404;2022-07-06T03:28:03;4.93;;;3.30;;
69386;SDS011;56575;48.942;8.404;2022-07-06T03:30:29;6.30;;;3.50;;
69386;SDS011;56575;48.942;8.404;2022-07-06T03:32:54;4.97;;;3.63;;
69386;SDS011;56575;48.942;8.404;2022-07-06T03:35:20;7.17;;;3.60;;
69386;SDS011;56575;48.942;8.404;2022-07-06T03:37:45;6.27;;;3.60;;
69386;SDS011;56575;48.942;8.404;2022-07-06T03:40:11;5.50;;;3.70;;
69386;SDS011;56575;48.942;8.404;2022-07-06T03:42:36;5.10;;;3.30;;
69386;SDS011;56575;48.942;8.404;2022-07-06T03:45:02;5.17;;;3.60;;
69386;SDS011;56575;48.942;8.404;2022-07-06T03:47:29;5.72;;;3.70;;
69386;SDS011;56575;48.942;8.404;2022-07-06T03:49:54;10.03;;;3.90;;
69386;SDS011;56575;48.942;8.404;2022-07-06T03:52:21;5.45;;;3.67;;
69386;SDS011;56575;48.942;8.404;2022-07-06T03:54:46;4.10;;;3.50;;
69386;SDS011;56575;48.942;8.404;2022-07-06T03:57:11;4.70;;;3.50;;
69386;SDS011;56575;48.942;8.404;2022-07-06T03:59:38;6.70;;;3.70;;
69386;SDS011;56575;48.942;8.404;2022-07-06T04:02:04;5.90;;;3.67;;
69386;SDS011;56575;48.942;8.404;2022-07-06T04:04:29;4.97;;;3.65;;
69386;SDS011;56575;48.942;8.404;2022-07-06T04:06:55;5.77;;;3.73;;
69386;SDS011;56575;48.942;8.404;2022-07-06T04:09:20;4.67;;;3.63;;
69386;SDS011;56575;48.942;8.404;2022-07-06T04:11:45;5.67;;;3.70;;
69386;SDS011;56575;48.942;8.404;2022-07-06T04:14:11;5.40;;;3.70;;
69386;SDS011;56575;48.942;8.404;2022-07-06T04:16:36;6.40;;;3.67;;
69386;SDS011;56575;48.942;8.404;2022-07-06T04:19:02;6.40;;;4.00;;
69386;SDS011;56575;48.942;8.404;2022-07-06T04:21:27;5.40;;;3.57;;
69386;SDS011;56575;48.942;8.404;2022-07-06T04:23:52;7.40;;;3.70;;
69386;SDS011;56575;48.942;8.404;2022-07-06T04:26:18;4.67;;;3.50;;
69386;SDS011;56575;48.942;8.404;2022-07-06T04:28:43;5.05;;;3.80;;
69386;SDS011;56575;48.942;8.404;2022-07-06T04:31:09;8.27;;;3.83;;
69386;SDS011;56575;48.942;8.404;2022-07-06T04:33:34;5.27;;;3.60;;
69386;SDS011;56575;48.942;8.404;2022-07-06T04:35:59;5.47;;;3.43;;
69386;SDS011;56575;48.942;8.404;2022-07-06T04:38:25;6.97;;;3.92;;
69386;SDS011;56575;48.942;8.404;2022-07-06T04:40:50;7.03;;;3.70;;
69386;SDS011;56575;48.942;8.404;2022-07-06T04:43:17;6.67;;;3.70;;
69386;SDS011;56575;48.942;8.404;2022-07-06T04:45:42;7.15;;;3.67;;
69386;SDS011;56575;48.942;8.404;2022-07-06T04:48:08;5.57;;;3.57;;
69386;SDS011;56575;48.942;8.404;2022-07-06T04:50:34;5.47;;;3.70;;
69386;SDS011;56575;48.942;8.404;2022-07-06T04:53:00;5.80;;;3.40;;
69386;SDS011;56575;48.942;8.404;2022-07-06T04:55:25;4.47;;;3.40;;
69386;SDS011;56575;48.942;8.404;2022-07-06T04:57:52;5.90;;;3.50;;
69386;SDS011;56575;48.942;8.404;2022-07-06T05:00:17;5.07;;;3.63;;
69386;SDS011;56575;48.942;8.404;2022-07-06T05:02:43;6.30;;;3.53;;
69386;SDS011;56575;48.942;8.404;2022-07-06T05:05:08;5.63;;;3.50;;
69386;SDS011;56575;48.942;8.404;2022-07-06T05:07:36;6.70;;;3.58;;
69386;SDS011;56575;48.942;8.404;2022-07-06T05:10:05;7.35;;;3.90;;
69386;SDS011;56575;48.942;8.404;2022-07-06T05:12:32;5.03;;;3.10;;
69386;SDS011;56575;48.942;8.404;2022-07-06T05:14:57;4.93;;;2.60;;
69386;SDS011;56575;48.942;8.404;2022-07-06T05:17:22;4.33;;;2.43;;
69386;SDS011;56575;48.942;8.404;2022-07-06T05:19:48;5.00;;;2.37;;
69386;SDS011;56575;48.942;8.404;2022-07-06T05:22:13;6.27;;;2.27;;
69386;SDS011;56575;48.942;8.404;2022-07-06T05:24:39;5.33;;;2.50;;
69386;SDS011;56575;48.942;8.404;2022-07-06T05:27:04;3.43;;;2.50;;
69386;SDS011;56575;48.942;8.404;2022-07-06T05:29:29;6.03;;;2.30;;
69386;SDS011;56575;48.942;8.404;2022-07-06T05:31:58;4.18;;;2.20;;
69386;SDS011;56575;48.942;8.404;2022-07-06T05:34:23;5.27;;;2.67;;
69386;SDS011;56575;48.942;8.404;2022-07-06T05:36:49;4.30;;;2.40;;
69386;SDS011;56575;48.942;8.404;2022-07-06T05:39:14;3.33;;;2.40;;
69386;SDS011;56575;48.942;8.404;2022-07-06T05:41:44;4.75;;;2.55;;
69386;SDS011;56575;48.942;8.404;2022-07-06T05:44:10;4.73;;;2.50;;
69386;SDS011;56575;48.942;8.404;2022-07-06T05:46:35;4.33;;;2.40;;
69386;SDS011;56575;48.942;8.404;2022-07-06T05:49:01;4.50;;;2.57;;
69386;SDS011;56575;48.942;8.404;2022-07-06T05:51:45;5.80;;;2.55;;
69386;SDS011;56575;48.942;8.404;2022-07-06T05:54:10;4.67;;;2.50;;
69386;SDS011;56575;48.942;8.404;2022-07-06T05:56:35;4.83;;;2.60;;
69386;SDS011;56575;48.942;8.404;2022-07-06T05:59:01;3.70;;;2.23;;
69386;SDS011;56575;48.942;8.404;2022-07-06T06:01:26;5.13;;;2.50;;
69386;SDS011;56575;48.942;8.404;2022-07-06T06:04:11;3.22;;;2.38;;
69386;SDS011;56575;48.942;8.404;2022-07-06T06:06:37;5.07;;;2.50;;
69386;SDS011;56575;48.942;8.404;2022-07-06T06:12:44;4.00;;;2.33;;
69386;SDS011;56575;48.942;8.404;2022-07-06T06:15:11;3.50;;;2.03;;
69386;SDS011;56575;48.942;8.404;2022-07-06T06:17:37;5.30;;;2.25;;
69386;SDS011;56575;48.942;8.404;2022-07-06T06:20:04;5.28;;;2.55;;
69386;SDS011;56575;48.942;8.404;2022-07-06T06:22:31;5.20;;;2.50;;
69386;SDS011;56575;48.942;8.404;2022-07-06T06:25:08;5.25;;;2.40;;
69386;SDS011;56575;48.942;8.404;2022-07-06T06:27:34;4.40;;;2.20;;
69386;SDS011;56575;48.942;8.404;2022-07-06T06:29:59;5.30;;;2.30;;
69386;SDS011;56575;48.942;8.404;2022-07-06T06:32:25;4.53;;;2.30;;
69386;SDS011;56575;48.942;8.404;2022-07-06T06:34:50;6.15;;;2.28;;
69386;SDS011;56575;48.942;8.404;2022-07-06T06:37:16;5.47;;;2.70;;
69386;SDS011;56575;48.942;8.404;2022-07-06T06:39:41;5.20;;;2.70;;
69386;SDS011;56575;48.942;8.404;2022-07-06T06:42:06;5.53;;;2.40;;
69386;SDS011;56575;48.942;8.404;2022-07-06T06:44:32;4.63;;;2.30;;
69386;SDS011;56575;48.942;8.404;2022-07-06T06:46:57;5.57;;;2.63;;
69386;SDS011;56575;48.942;8.404;2022-07-06T06:49:23;7.10;;;2.30;;
69386;SDS011;56575;48.942;8.404;2022-07-06T06:51:48;6.03;;;2.10;;
69386;SDS011;56575;48.942;8.404;2022-07-06T06:54:14;4.07;;;2.30;;
69386;SDS011;56575;48.942;8.404;2022-07-06T06:56:39;5.00;;;2.13;;
69386;SDS011;56575;48.942;8.404;2022-07-06T06:59:05;5.13;;;2.80;;
69386;SDS011;56575;48.942;8.404;2022-07-06T07:01:30;6.40;;;2.80;;
69386;SDS011;56575;48.942;8.404;2022-07-06T07:03:57;4.10;;;2.30;;
69386;SDS011;56575;48.942;8.404;2022-07-06T07:06:23;4.13;;;2.30;;
69386;SDS011;56575;48.942;8.404;2022-07-06T07:08:56;5.57;;;2.20;;
69386;SDS011;56575;48.942;8.404;2022-07-06T07:11:23;5.78;;;2.55;;
69386;SDS011;56575;48.942;8.404;2022-07-06T07:13:59;7.75;;;2.80;;
69386;SDS011;56575;48.942;8.404;2022-07-06T07:16:29;5.43;;;2.77;;
69386;SDS011;56575;48.942;8.404;2022-07-06T07:19:23;5.65;;;2.58;;
69386;SDS011;56575;48.942;8.404;2022-07-06T07:21:51;5.90;;;2.75;;
69386;SDS011;56575;48.942;8.404;2022-07-06T07:24:21;8.10;;;2.80;;
69386;SDS011;56575;48.942;8.404;2022-07-06T07:26:47;6.67;;;2.20;;
69386;SDS011;56575;48.942;8.404;2022-07-06T07:29:16;6.00;;;2.40;;
69386;SDS011;56575;48.942;8.404;2022-07-06T07:31:45;4.68;;;2.20;;
69386;SDS011;56575;48.942;8.404;2022-07-06T07:37:49;3.60;;;2.30;;
69386;SDS011;56575;48.942;8.404;2022-07-06T07:43:51;4.97;;;2.20;;
69386;SDS011;56575;48.942;8.404;2022-07-06T07:46:26;5.68;;;2.20;;
69386;SDS011;56575;48.942;8.404;2022-07-06T07:49:05;5.85;;;2.05;;
69386;SDS011;56575;48.942;8.404;2022-07-06T07:51:48;5.13;;;2.67;;
69386;SDS011;56575;48.942;8.404;2022-07-06T07:54:14;4.13;;;2.60;;
69386;SDS011;56575;48.942;8.404;2022-07-06T07:56:42;7.73;;;2.40;;
69386;SDS011;56575;48.942;8.404;2022-07-06T07:59:07;5.47;;;2.80;;
69386;SDS011;56575;48.942;8.404;2022-07-06T08:01:33;5.20;;;2.53;;
69386;SDS011;56575;48.942;8.404;2022-07-06T08:03:59;4.03;;;1.92;;
69386;SDS011;56575;48.942;8.404;2022-07-06T08:06:28;6.20;;;2.43;;
69386;SDS011;56575;48.942;8.404;2022-07-06T08:09:05;4.03;;;2.25;;
69386;SDS011;56575;48.942;8.404;2022-07-06T08:11:58;4.57;;;2.40;;
69386;SDS011;56575;48.942;8.404;2022-07-06T08:15:20;10.43;;;2.88;;
69386;SDS011;56575;48.942;8.404;2022-07-06T08:17:56;6.68;;;2.88;;
69386;SDS011;56575;48.942;8.404;2022-07-06T08:26:20;6.40;;;2.95;;
69386;SDS011;56575;48.942;8.404;2022-07-06T08:28:47;7.43;;;2.50;;
69386;SDS011;56575;48.942;8.404;2022-07-06T08:31:45;6.03;;;2.83;;
69386;SDS011;56575;48.942;8.404;2022-07-06T08:34:46;6.97;;;3.03;;
69386;SDS011;56575;48.942;8.404;2022-07-06T08:37:12;5.05;;;2.80;;
69386;SDS011;56575;48.942;8.404;2022-07-06T08:39:38;5.27;;;2.60;;
69386;SDS011;56575;48.942;8.404;2022-07-06T08:42:20;4.50;;;2.80;;
69386;SDS011;56575;48.942;8.404;2022-07-06T08:45:20;5.25;;;3.10;;
69386;SDS011;56575;48.942;8.404;2022-07-06T08:50:34;6.32;;;3.20;;
69386;SDS011;56575;48.942;8.404;2022-07-06T08:53:04;6.50;;;3.03;;
69386;SDS011;56575;48.942;8.404;2022-07-06T08:55:40;6.17;;;3.13;;
69386;SDS011;56575;48.942;8.404;2022-07-06T08:58:13;8.13;;;3.35;;
69386;SDS011;56575;48.942;8.404;2022-07-06T09:00:58;6.50;;;3.40;;
69386;SDS011;56575;48.942;8.404;2022-07-06T09:03:25;6.38;;;3.40;;
69386;SDS011;56575;48.942;8.404;2022-07-06T09:05:52;7.30;;;3.40;;
69386;SDS011;56575;48.942;8.404;2022-07-06T09:08:17;6.25;;;3.13;;
69386;SDS011;56575;48.942;8.404;2022-07-06T09:10:44;6.80;;;3.05;;
69386;SDS011;56575;48.942;8.404;2022-07-06T09:13:09;5.27;;;3.00;;
69386;SDS011;56575;48.942;8.404;2022-07-06T09:15:35;8.73;;;3.67;;
69386;SDS011;56575;48.942;8.404;2022-07-06T09:18:04;4.78;;;2.78;;
69386;SDS011;56575;48.942;8.404;2022-07-06T09:20:31;9.43;;;3.25;;
69386;SDS011;56575;48.942;8.404;2022-07-06T09:23:01;4.38;;;2.80;;
69386;SDS011;56575;48.942;8.404;2022-07-06T09:25:29;6.88;;;3.00;;
69386;SDS011;56575;48.942;8.404;2022-07-06T09:27:56;5.47;;;2.83;;
69386;SDS011;56575;48.942;8.404;2022-07-06T09:30:23;4.57;;;2.60;;
69386;SDS011;56575;48.942;8.404;2022-07-06T09:32:50;8.90;;;3.10;;
69386;SDS011;56575;48.942;8.404;2022-07-06T09:38:14;6.75;;;3.60;;
69386;SDS011;56575;48.942;8.404;2022-07-06T09:43:28;4.30;;;2.97;;
69386;SDS011;56575;48.942;8.404;2022-07-06T09:45:55;4.45;;;3.20;;
69386;SDS011;56575;48.942;8.404;2022-07-06T09:48:23;10.77;;;3.10;;
69386;SDS011;56575;48.942;8.404;2022-07-06T09:50:50;7.35;;;3.03;;
69386;SDS011;56575;48.942;8.404;2022-07-06T09:53:31;7.20;;;2.60;;
69386;SDS011;56575;48.942;8.404;2022-07-06T09:56:00;7.47;;;3.25;;
69386;SDS011;56575;48.942;8.404;2022-07-06T09:58:26;5.30;;;3.13;;
69386;SDS011;56575;48.942;8.404;2022-07-06T10:00:52;5.43;;;2.70;;
69386;SDS011;56575;48.942;8.404;2022-07-06T10:03:18;5.67;;;2.50;;
69386;SDS011;56575;48.942;8.404;2022-07-06T10:05:44;5.00;;;2.42;;
69386;SDS011;56575;48.942;8.404;2022-07-06T10:08:12;5.40;;;2.60;;
69386;SDS011;56575;48.942;8.404;2022-07-06T10:10:41;6.40;;;2.40;;
69386;SDS011;56575;48.942;8.404;2022-07-06T10:13:08;5.18;;;2.92;;
69386;SDS011;56575;48.942;8.404;2022-07-06T10:15:35;6.53;;;3.05;;
69386;SDS011;56575;48.942;8.404;2022-07-06T10:18:05;5.93;;;2.60;;
69386;SDS011;56575;48.942;8.404;2022-07-06T10:20:32;5.40;;;2.53;;
69386;SDS011;56575;48.942;8.404;2022-07-06T10:23:01;4.30;;;2.50;;
69386;SDS011;56575;48.942;8.404;2022-07-06T10:25:28;5.70;;;3.10;;
69386;SDS011;56575;48.942;8.404;2022-07-06T10:27:55;5.68;;;2.42;;
69386;SDS011;56575;48.942;8.404;2022-07-06T10:30:21;6.90;;;2.67;;
69386;SDS011;56575;48.942;8.404;2022-07-06T10:32:48;5.25;;;2.50;;
69386;SDS011;56575;48.942;8.404;2022-07-06T10:35:15;4.38;;;2.50;;
69386;SDS011;56575;48.942;8.404;2022-07-06T10:37:43;5.65;;;2.80;;
69386;SDS011;56575;48.942;8.404;2022-07-06T10:40:09;7.30;;;2.50;;
69386;SDS011;56575;48.942;8.404;2022-07-06T10:43:00;5.83;;;2.73;;
69386;SDS011;56575;48.942;8.404;2022-07-06T10:50:36;10.75;;;3.20;;
69386;SDS011;56575;48.942;8.404;2022-07-06T10:53:02;6.47;;;3.00;;
69386;SDS011;56575;48.942;8.404;2022-07-06T10:55:28;5.37;;;2.73;;
69386;SDS011;56575;48.942;8.404;2022-07-06T10:57:55;6.25;;;2.58;;
69386;SDS011;56575;48.942;8.404;2022-07-06T11:00:21;5.00;;;2.53;;
69386;SDS011;56575;48.942;8.404;2022-07-06T11:02:46;5.03;;;2.05;;
69386;SDS011;56575;48.942;8.404;2022-07-06T11:05:39;5.20;;;2.53;;
69386;SDS011;56575;48.942;8.404;2022-07-06T11:08:10;5.90;;;2.90;;
69386;SDS011;56575;48.942;8.404;2022-07-06T11:10:57;5.07;;;2.30;;
69386;SDS011;56575;48.942;8.404;2022-07-06T11:13:41;5.50;;;2.40;;
69386;SDS011;56575;48.942;8.404;2022-07-06T11:16:13;4.90;;;2.58;;
69386;SDS011;56575;48.942;8.404;2022-07-06T11:18:40;6.50;;;2.80;;
69386;SDS011;56575;48.942;8.404;2022-07-06T11:21:16;5.60;;;2.67;;
69386;SDS011;56575;48.942;8.404;2022-07-06T11:23:46;5.22;;;2.63;;
69386;SDS011;56575;48.942;8.404;2022-07-06T11:26:14;5.50;;;2.63;;
69386;SDS011;56575;48.942;8.404;2022-07-06T11:28:40;4.95;;;2.70;;
69386;SDS011;56575;48.942;8.404;2022-07-06T11:31:06;4.40;;;2.80;;
69386;SDS011;56575;48.942;8.404;2022-07-06T11:33:32;3.37;;;2.80;;
69386;SDS011;56575;48.942;8.404;2022-07-06T11:36:11;7.43;;;2.60;;
69386;SDS011;56575;48.942;8.404;2022-07-06T11:38:43;5.05;;;2.78;;
69386;SDS011;56575;48.942;8.404;2022-07-06T11:41:10;6.53;;;2.80;;
69386;SDS011;56575;48.942;8.404;2022-07-06T11:43:37;7.03;;;2.90;;
69386;SDS011;56575;48.942;8.404;2022-07-06T11:46:07;4.97;;;2.75;;
69386;SDS011;56575;48.942;8.404;2022-07-06T11:48:46;5.13;;;2.50;;
69386;SDS011;56575;48.942;8.404;2022-07-06T11:51:15;5.78;;;2.47;;
69386;SDS011;56575;48.942;8.404;2022-07-06T11:53:42;4.00;;;2.60;;
69386;SDS011;56575;48.942;8.404;2022-07-06T11:56:12;6.28;;;2.63;;
69386;SDS011;56575;48.942;8.404;2022-07-06T11:58:39;5.30;;;2.70;;
69386;SDS011;56575;48.942;8.404;2022-07-06T12:01:08;5.75;;;2.60;;
69386;SDS011;56575;48.942;8.404;2022-07-06T12:03:35;4.53;;;2.20;;
69386;SDS011;56575;48.942;8.404;2022-07-06T12:06:02;6.85;;;2.80;;
69386;SDS011;56575;48.942;8.404;2022-07-06T12:08:28;6.38;;;2.50;;
69386;SDS011;56575;48.942;8.404;2022-07-06T12:10:53;3.00;;;2.40;;
69386;SDS011;56575;48.942;8.404;2022-07-06T12:13:20;3.95;;;2.40;;
69386;SDS011;56575;48.942;8.404;2022-07-06T12:15:46;4.27;;;2.43;;
69386;SDS011;56575;48.942;8.404;2022-07-06T12:18:11;4.97;;;2.23;;
69386;SDS011;56575;48.942;8.404;2022-07-06T12:20:36;4.38;;;2.60;;
69386;SDS011;56575;48.942;8.404;2022-07-06T12:23:02;8.90;;;3.10;;
69386;SDS011;56575;48.942;8.404;2022-07-06T12:25:29;5.72;;;2.55;;
69386;SDS011;56575;48.942;8.404;2022-07-06T12:27:58;4.97;;;2.27;;
69386;SDS011;56575;48.942;8.404;2022-07-06T13:18:09;4.40;;;1.97;;
69386;SDS011;56575;48.942;8.404;2022-07-06T13:20:35;4.43;;;1.90;;
69386;SDS011;56575;48.942;8.404;2022-07-06T13:23:00;4.20;;;1.87;;
69386;SDS011;56575;48.942;8.404;2022-07-06T13:25:26;4.13;;;1.60;;
69386;SDS011;56575;48.942;8.404;2022-07-06T13:27:51;2.90;;;1.70;;
69386;SDS011;56575;48.942;8.404;2022-07-06T13:30:17;4.03;;;1.80;;
69386;SDS011;56575;48.942;8.404;2022-07-06T13:32:42;3.20;;;1.83;;
69386;SDS011;56575;48.942;8.404;2022-07-06T13:35:08;2.17;;;1.77;;
69386;SDS011;56575;48.942;8.404;2022-07-06T13:37:34;2.90;;;1.60;;
69386;SDS011;56575;48.942;8.404;2022-07-06T13:40:00;4.38;;;1.75;;
69386;SDS011;56575;48.942;8.404;2022-07-06T13:42:25;2.27;;;1.50;;
69386;SDS011;56575;48.942;8.404;2022-07-06T13:44:50;4.37;;;1.87;;
69386;SDS011;56575;48.942;8.404;2022-07-06T13:47:16;2.40;;;1.53;;
69386;SDS011;56575;48.942;8.404;2022-07-06T13:49:41;3.63;;;1.40;;
69386;SDS011;56575;48.942;8.404;2022-07-06T13:52:08;4.50;;;1.60;;
69386;SDS011;56575;48.942;8.404;2022-07-06T13:54:34;2.20;;;1.50;;
69386;SDS011;56575;48.942;8.404;2022-07-06T13:57:03;2.95;;;1.63;;
69386;SDS011;56575;48.942;8.404;2022-07-06T13:59:30;3.93;;;1.47;;
69386;SDS011;56575;48.942;8.404;2022-07-06T14:01:56;2.08;;;1.50;;
69386;SDS011;56575;48.942;8.404;2022-07-06T14:04:24;5.38;;;1.45;;
69386;SDS011;56575;48.942;8.404;2022-07-06T14:06:49;2.83;;;1.70;;
69386;SDS011;56575;48.942;8.404;2022-07-06T14:09:15;4.77;;;1.60;;
69386;SDS011;56575;48.942;8.404;2022-07-06T14:11:40;2.70;;;1.40;;
69386;SDS011;56575;48.942;8.404;2022-07-06T14:14:05;2.67;;;1.30;;
69386;SDS011;56575;48.942;8.404;2022-07-06T14:16:32;2.78;;;1.45;;
69386;SDS011;56575;48.942;8.404;2022-07-06T14:18:59;2.67;;;1.50;;
69386;SDS011;56575;48.942;8.404;2022-07-06T14:21:25;2.88;;;1.52;;
69386;SDS011;56575;48.942;8.404;2022-07-06T14:23:50;2.93;;;1.60;;
69386;SDS011;56575;48.942;8.404;2022-07-06T14:26:16;2.15;;;1.52;;
69386;SDS011;56575;48.942;8.404;2022-07-06T14:28:41;2.10;;;1.40;;
69386;SDS011;56575;48.942;8.404;2022-07-06T14:31:07;4.37;;;1.60;;
69386;SDS011;56575;48.942;8.404;2022-07-06T14:33:32;3.15;;;1.27;;
69386;SDS011;56575;48.942;8.404;2022-07-06T14:35:58;3.73;;;1.63;;
69386;SDS011;56575;48.942;8.404;2022-07-06T14:38:24;1.98;;;1.30;;
69386;SDS011;56575;48.942;8.404;2022-07-06T14:40:50;4.10;;;1.40;;
69386;SDS011;56575;48.942;8.404;2022-07-06T14:43:16;3.33;;;1.20;;
69386;SDS011;56575;48.942;8.404;2022-07-06T14:45:45;1.73;;;1.30;;
69386;SDS011;56575;48.942;8.404;2022-07-06T14:48:11;3.47;;;1.48;;
69386;SDS011;56575;48.942;8.404;2022-07-06T14:50:37;2.60;;;1.47;;
69386;SDS011;56575;48.942;8.404;2022-07-06T14:53:02;2.35;;;1.38;;
69386;SDS011;56575;48.942;8.404;2022-07-06T14:55:27;2.37;;;1.30;;
69386;SDS011;56575;48.942;8.404;2022-07-06T14:57:53;3.10;;;1.90;;
69386;SDS011;56575;48.942;8.404;2022-07-06T15:00:20;1.83;;;1.20;;
69386;SDS011;56575;48.942;8.404;2022-07-06T15:02:46;3.28;;;1.52;;
69386;SDS011;56575;48.942;8.404;2022-07-06T15:05:11;2.80;;;1.30;;
69386;SDS011;56575;48.942;8.404;2022-07-06T15:07:38;2.35;;;1.60;;
69386;SDS011;56575;48.942;8.404;2022-07-06T15:10:04;4.47;;;1.30;;
69386;SDS011;56575;48.942;8.404;2022-07-06T15:12:30;2.65;;;1.38;;
69386;SDS011;56575;48.942;8.404;2022-07-06T15:14:56;1.55;;;1.42;;
69386;SDS011;56575;48.942;8.404;2022-07-06T15:17:21;2.40;;;1.20;;
69386;SDS011;56575;48.942;8.404;2022-07-06T15:19:47;2.17;;;1.40;;
69386;SDS011;56575;48.942;8.404;2022-07-06T15:22:12;3.40;;;1.40;;
69386;SDS011;56575;48.942;8.404;2022-07-06T15:24:38;1.50;;;1.33;;
69386;SDS011;56575;48.942;8.404;2022-07-06T15:27:04;1.70;;;1.33;;
69386;SDS011;56575;48.942;8.404;2022-07-06T15:29:30;3.65;;;1.35;;
69386;SDS011;56575;48.942;8.404;2022-07-06T15:31:56;2.65;;;1.23;;
69386;SDS011;56575;48.942;8.404;2022-07-06T15:34:22;2.87;;;1.50;;
69386;SDS011;56575;48.942;8.404;2022-07-06T15:36:48;2.90;;;1.25;;
69386;SDS011;56575;48.942;8.404;2022-07-06T15:39:14;2.43;;;1.30;;
69386;SDS011;56575;48.942;8.404;2022-07-06T15:41:40;2.28;;;1.35;;
69386;SDS011;56575;48.942;8.404;2022-07-06T15:44:06;2.10;;;1.40;;
69386;SDS011;56575;48.942;8.404;2022-07-06T15:46:32;3.58;;;1.48;;
69386;SDS011;56575;48.942;8.404;2022-07-06T15:49:00;2.45;;;1.30;;
69386;SDS011;56575;48.942;8.404;2022-07-06T15:51:29;3.97;;;1.38;;
69386;SDS011;56575;48.942;8.404;2022-07-06T15:54:02;2.10;;;1.40;;
69386;SDS011;56575;48.942;8.404;2022-07-06T15:56:28;3.33;;;1.48;;
69386;SDS011;56575;48.942;8.404;2022-07-06T15:58:53;2.93;;;1.50;;
69386;SDS011;56575;48.942;8.404;2022-07-06T16:01:18;4.32;;;1.60;;
69386;SDS011;56575;48.942;8.404;2022-07-06T16:03:44;2.17;;;1.20;;
69386;SDS011;56575;48.942;8.404;2022-07-06T16:06:09;1.53;;;1.23;;
69386;SDS011;56575;48.942;8.404;2022-07-06T16:08:35;2.15;;;1.50;;